createdAt,value
2022-09-03T00:00:09.440Z,84.90
2022-09-03T00:03:06.421Z,84.70
2022-09-03T00:06:30.730Z,84.70
2022-09-03T00:09:24.789Z,85.20
2022-09-03T00:12:26.900Z,84.70
2022-09-03T00:15:12.276Z,84.50
2022-09-03T00:18:04.842Z,85.00
2022-09-03T00:20:50.955Z,85.60
2022-09-03T00:23:30.369Z,86.20
2022-09-03T00:26:12.357Z,85.30
2022-09-03T00:29:06.608Z,84.90
2022-09-03T00:31:47.605Z,85.10
2022-09-03T00:34:37.997Z,85.00
2022-09-03T00:37:05.554Z,85.00
2022-09-03T00:39:33.810Z,84.80
2022-09-03T00:42:37.523Z,84.60
2022-09-03T00:45:57.830Z,85.20
2022-09-03T00:48:48.664Z,84.60
2022-09-03T00:51:33.944Z,84.90
2022-09-03T00:55:01.512Z,84.70
2022-09-03T00:58:13.877Z,84.60
2022-09-03T01:00:45.629Z,84.90
2022-09-03T01:04:06.509Z,85.00
2022-09-03T01:07:10.421Z,84.90
2022-09-03T01:10:16.381Z,84.70
2022-09-03T01:13:30.000Z,84.20
2022-09-03T01:16:39.847Z,84.40
2022-09-03T01:20:02.959Z,84.40
2022-09-03T01:23:14.379Z,84.90
2022-09-03T01:26:35.408Z,84.60
2022-09-03T01:29:35.264Z,84.60
2022-09-03T01:32:34.797Z,84.50
2022-09-03T01:35:47.486Z,84.50
2022-09-03T01:38:47.223Z,85.00
2022-09-03T01:42:21.304Z,84.90
2022-09-03T01:45:22.569Z,85.20
2022-09-03T01:48:42.212Z,85.10
2022-09-03T01:51:23.169Z,85.40
2022-09-03T01:54:22.013Z,85.80
2022-09-03T01:57:46.041Z,86.30
2022-09-03T02:00:20.640Z,86.10
2022-09-03T02:02:54.244Z,85.80
2022-09-03T02:05:29.201Z,86.40
2022-09-03T02:08:07.350Z,86.40
2022-09-03T02:10:53.685Z,86.00
2022-09-03T02:13:51.140Z,86.20
2022-09-03T02:16:28.384Z,86.20
2022-09-03T02:19:03.349Z,85.80
2022-09-03T02:21:40.794Z,85.80
2022-09-03T02:24:09.439Z,86.00
2022-09-03T02:26:37.059Z,86.00
2022-09-03T02:29:05.495Z,86.20
2022-09-03T02:31:33.809Z,85.80
2022-09-03T02:34:01.259Z,86.00
2022-09-03T02:36:46.555Z,86.20
2022-09-03T02:39:16.707Z,86.20
2022-09-03T02:41:44.833Z,86.30
2022-09-03T02:44:33.157Z,86.40
2022-09-03T02:47:06.924Z,86.90
2022-09-03T02:49:35.349Z,87.00
2022-09-03T02:52:09.701Z,86.60
2022-09-03T02:54:40.041Z,86.50
2022-09-03T02:57:16.089Z,86.70
2022-09-03T02:59:51.122Z,86.80
2022-09-03T03:02:18.540Z,87.10
2022-09-03T03:04:45.940Z,87.00
2022-09-03T03:07:14.107Z,86.60
2022-09-03T03:09:42.416Z,86.40
2022-09-03T03:12:10.370Z,86.70
2022-09-03T03:14:37.782Z,86.60
2022-09-03T03:17:05.729Z,86.70
2022-09-03T03:19:33.157Z,87.20
2022-09-03T03:22:00.789Z,87.00
2022-09-03T03:24:28.507Z,86.90
2022-09-03T03:26:59.809Z,87.30
2022-09-03T03:29:27.936Z,87.30
2022-09-03T03:31:55.235Z,87.40
2022-09-03T03:34:23.369Z,87.40
2022-09-03T03:36:50.764Z,87.60
2022-09-03T03:39:18.300Z,87.50
2022-09-03T03:41:45.663Z,87.60
2022-09-03T03:44:12.977Z,87.60
2022-09-03T03:46:41.929Z,87.70
2022-09-03T03:49:11.100Z,88.10
2022-09-03T03:51:39.313Z,87.90
2022-09-03T03:54:06.933Z,87.90
2022-09-03T03:56:35.478Z,88.30
2022-09-03T03:59:03.611Z,87.90
2022-09-03T04:01:31.116Z,88.30
2022-09-03T04:04:01.807Z,88.00
2022-09-03T04:06:29.592Z,88.10
2022-09-03T04:08:57.031Z,88.00
2022-09-03T04:11:27.058Z,88.10
2022-09-03T04:13:54.897Z,87.90
2022-09-03T04:16:27.416Z,87.70
2022-09-03T04:18:56.800Z,88.20
2022-09-03T04:21:31.551Z,87.90
2022-09-03T04:23:59.473Z,88.00
2022-09-03T04:26:34.274Z,88.00
2022-09-03T04:29:07.223Z,87.80
2022-09-03T04:31:38.752Z,87.90
2022-09-03T04:34:07.418Z,88.00
2022-09-03T04:36:35.177Z,87.80
2022-09-03T04:39:02.863Z,87.90
2022-09-03T04:41:31.894Z,87.70
2022-09-03T04:44:00.394Z,87.90
2022-09-03T04:46:35.367Z,87.70
2022-09-03T04:49:03.018Z,87.60
2022-09-03T04:51:31.809Z,87.40
2022-09-03T04:54:02.542Z,87.50
2022-09-03T04:56:35.112Z,87.40
2022-09-03T04:59:09.586Z,87.30
2022-09-03T05:01:40.586Z,87.20
2022-09-03T05:04:08.988Z,87.10
2022-09-03T05:06:37.657Z,87.20
2022-09-03T05:09:06.010Z,87.20
2022-09-03T05:11:36.272Z,87.20
2022-09-03T05:14:05.873Z,87.20
2022-09-03T05:16:33.379Z,87.40
2022-09-03T05:19:01.435Z,87.30
2022-09-03T05:21:30.732Z,87.10
2022-09-03T05:24:01.860Z,86.90
2022-09-03T05:26:37.129Z,87.30
2022-09-03T05:29:07.813Z,86.90
2022-09-03T05:31:39.575Z,86.70
2022-09-03T05:34:07.754Z,86.80
2022-09-03T05:36:38.313Z,86.80
2022-09-03T05:39:06.503Z,86.70
2022-09-03T05:41:34.465Z,87.00
2022-09-03T05:44:02.579Z,87.00
2022-09-03T05:46:35.077Z,87.10
2022-09-03T05:49:06.438Z,87.00
2022-09-03T05:51:36.693Z,87.00
2022-09-03T05:54:04.266Z,87.30
2022-09-03T05:56:35.697Z,87.40
2022-09-03T05:59:09.367Z,87.00
2022-09-03T06:01:50.937Z,87.30
2022-09-03T06:04:20.393Z,87.00
2022-09-03T06:06:49.030Z,87.20
2022-09-03T06:09:23.288Z,87.40
2022-09-03T06:11:54.343Z,87.10
2022-09-03T06:14:25.244Z,87.00
2022-09-03T06:16:53.089Z,86.90
2022-09-03T06:19:20.999Z,87.10
2022-09-03T06:21:48.891Z,87.10
2022-09-03T06:24:26.472Z,87.30
2022-09-03T06:26:59.346Z,87.40
2022-09-03T06:29:27.644Z,87.50
2022-09-03T06:31:55.085Z,87.40
2022-09-03T06:34:25.561Z,87.20
2022-09-03T06:36:54.554Z,87.00
2022-09-03T06:39:22.421Z,86.90
2022-09-03T06:41:51.847Z,86.90
2022-09-03T06:44:19.320Z,87.00
2022-09-03T06:46:48.502Z,86.90
2022-09-03T06:49:15.853Z,86.80
2022-09-03T06:51:44.075Z,86.70
2022-09-03T06:54:13.262Z,86.40
2022-09-03T06:56:41.985Z,86.20
2022-09-03T06:59:15.224Z,86.40
2022-09-03T07:01:46.159Z,85.50
2022-09-03T07:04:20.275Z,86.10
2022-09-03T07:06:47.809Z,85.50
2022-09-03T07:09:18.150Z,85.90
2022-09-03T07:11:49.388Z,86.20
2022-09-03T07:14:22.305Z,86.10
2022-09-03T07:16:50.688Z,85.40
2022-09-03T07:19:18.348Z,85.90
2022-09-03T07:21:49.988Z,85.00
2022-09-03T07:24:22.796Z,85.10
2022-09-03T07:26:50.218Z,84.30
2022-09-03T07:29:21.902Z,84.60
2022-09-03T07:31:51.934Z,84.60
2022-09-03T07:34:22.125Z,84.20
2022-09-03T07:36:51.384Z,84.40
2022-09-03T07:39:19.838Z,83.80
2022-09-03T07:41:47.769Z,84.60
2022-09-03T07:44:19.752Z,84.20
2022-09-03T07:46:51.944Z,84.10
2022-09-03T07:49:21.732Z,84.20
2022-09-03T07:51:54.305Z,83.90
2022-09-03T07:54:23.572Z,83.40
2022-09-03T07:56:51.394Z,84.20
2022-09-03T07:59:19.250Z,83.80
2022-09-03T08:01:46.572Z,83.40
2022-09-03T08:04:14.137Z,83.70
2022-09-03T08:06:42.286Z,83.60
2022-09-03T08:09:13.930Z,83.90
2022-09-03T08:11:43.761Z,83.80
2022-09-03T08:14:15.435Z,84.30
2022-09-03T08:16:48.081Z,84.00
2022-09-03T08:19:18.424Z,83.80
2022-09-03T08:21:46.149Z,83.80
2022-09-03T08:24:20.916Z,83.70
2022-09-03T08:26:52.132Z,83.80
2022-09-03T08:29:21.467Z,83.80
2022-09-03T08:31:49.295Z,83.90
2022-09-03T08:34:17.803Z,83.40
2022-09-03T08:36:47.273Z,83.20
2022-09-03T08:39:14.776Z,84.40
2022-09-03T08:42:29.147Z,84.20
2022-09-03T08:45:06.630Z,85.40
2022-09-03T08:47:48.290Z,83.80
2022-09-03T08:50:36.044Z,83.30
2022-09-03T08:53:55.965Z,87.00
2022-09-03T08:56:33.026Z,87.20
2022-09-03T08:59:02.200Z,88.20
2022-09-03T09:02:51.039Z,89.20
2022-09-03T09:05:47.064Z,88.60
2022-09-03T09:09:03.054Z,89.10
2022-09-03T09:12:15.963Z,89.40
2022-09-03T09:15:43.237Z,88.30
2022-09-03T09:19:03.352Z,90.30
2022-09-03T09:22:41.228Z,90.50
2022-09-03T09:25:20.528Z,90.40
2022-09-03T09:28:36.156Z,89.20
2022-09-03T09:31:11.617Z,89.90
2022-09-03T09:33:39.384Z,90.10
2022-09-03T09:36:15.368Z,90.00
2022-09-03T09:38:45.556Z,90.40
2022-09-03T09:41:23.369Z,90.40
2022-09-03T09:44:05.704Z,90.70
2022-09-03T09:46:43.124Z,90.50
2022-09-03T09:49:58.602Z,90.40
2022-09-03T09:52:30.273Z,90.50
2022-09-03T09:55:19.190Z,88.50
2022-09-03T09:57:47.331Z,90.10
2022-09-03T10:00:18.781Z,90.70
2022-09-03T10:02:54.755Z,90.50
2022-09-03T10:05:36.795Z,90.40
2022-09-03T10:08:22.023Z,90.80
2022-09-03T10:10:51.832Z,90.90
2022-09-03T10:13:30.789Z,90.70
2022-09-03T10:16:43.315Z,90.10
2022-09-03T10:19:26.216Z,89.70
2022-09-03T10:22:18.862Z,89.60
2022-09-03T10:25:02.888Z,89.90
2022-09-03T10:27:32.139Z,89.70
2022-09-03T10:30:00.730Z,88.50
2022-09-03T10:33:07.116Z,86.70
2022-09-03T10:35:52.716Z,89.60
2022-09-03T10:38:34.591Z,89.90
2022-09-03T10:41:55.832Z,90.00
2022-09-03T10:44:43.681Z,91.00
2022-09-03T10:48:17.309Z,90.90
2022-09-03T10:51:49.488Z,90.60
2022-09-03T10:55:03.939Z,91.00
2022-09-03T10:58:38.338Z,87.90
2022-09-03T11:02:15.290Z,87.60
2022-09-03T11:05:30.529Z,90.00
2022-09-03T11:08:21.957Z,90.50
2022-09-03T11:11:08.764Z,85.80
2022-09-03T11:14:12.249Z,84.20
2022-09-03T11:16:54.245Z,84.20
2022-09-03T11:20:06.519Z,84.70
2022-09-03T11:22:35.000Z,85.00
2022-09-03T11:25:05.589Z,83.30
2022-09-03T11:28:12.780Z,83.40
2022-09-03T11:31:52.945Z,82.50
2022-09-03T11:34:32.266Z,83.70
2022-09-03T11:37:26.280Z,80.80
2022-09-03T11:40:19.368Z,79.90
2022-09-03T11:42:47.385Z,82.10
2022-09-03T11:45:30.174Z,78.90
2022-09-03T11:47:57.781Z,76.50
2022-09-03T11:50:34.543Z,77.30
2022-09-03T11:53:15.118Z,75.90
2022-09-03T11:56:05.198Z,73.90
2022-09-03T11:58:42.960Z,75.90
2022-09-03T12:01:20.748Z,77.30
2022-09-03T12:04:09.756Z,76.60
2022-09-03T12:07:40.595Z,77.30
2022-09-03T12:10:41.751Z,75.00
2022-09-03T12:14:21.330Z,76.40
2022-09-03T12:18:31.967Z,74.30
2022-09-03T12:21:00.166Z,72.40
2022-09-03T12:23:51.035Z,72.30
2022-09-03T12:26:27.552Z,73.00
2022-09-03T12:29:00.872Z,75.30
2022-09-03T12:31:46.760Z,72.40
2022-09-03T12:34:18.636Z,73.00
2022-09-03T12:36:52.148Z,72.20
2022-09-03T12:42:30.880Z,73.10
2022-09-03T12:45:12.728Z,73.40
2022-09-03T12:47:41.994Z,70.10
2022-09-03T12:50:17.075Z,71.30
2022-09-03T12:52:53.782Z,71.00
2022-09-03T12:55:36.830Z,71.20
2022-09-03T12:58:54.342Z,72.70
2022-09-03T13:01:33.456Z,69.30
2022-09-03T13:04:15.269Z,63.70
2022-09-03T13:07:08.275Z,65.30
2022-09-03T13:09:39.889Z,64.80
2022-09-03T13:12:07.856Z,64.50
2022-09-03T13:14:48.273Z,65.10
2022-09-03T13:18:01.983Z,64.60
2022-09-03T13:21:32.589Z,60.80
2022-09-03T13:25:01.983Z,63.40
2022-09-03T13:28:18.956Z,61.70
2022-09-03T13:31:21.662Z,62.20
2022-09-03T13:34:12.928Z,61.80
2022-09-03T13:37:10.143Z,61.80
2022-09-03T13:40:36.249Z,61.70
2022-09-03T13:43:43.536Z,60.10
2022-09-03T13:47:02.577Z,60.80
2022-09-03T13:50:09.206Z,61.90
2022-09-03T13:53:10.504Z,59.50
2022-09-03T13:55:55.828Z,59.40
2022-09-03T13:58:48.920Z,59.70
2022-09-03T14:01:46.074Z,59.00
2022-09-03T14:04:29.169Z,59.00
2022-09-03T14:07:15.756Z,59.60
2022-09-03T14:10:46.541Z,58.50
2022-09-03T14:13:59.490Z,60.60
2022-09-03T14:16:39.802Z,59.40
2022-09-03T14:20:00.540Z,60.00
2022-09-03T14:23:08.785Z,59.80
2022-09-03T14:25:37.108Z,60.90
2022-09-03T14:28:44.435Z,61.40
2022-09-03T14:32:03.445Z,59.70
2022-09-03T14:35:52.839Z,60.40
2022-09-03T14:39:24.566Z,61.40
2022-09-03T14:42:07.823Z,61.60
2022-09-03T14:45:13.367Z,62.10
2022-09-03T14:48:58.248Z,63.10
2022-09-03T14:52:39.423Z,63.10
2022-09-03T14:55:40.692Z,64.30
2022-09-03T14:58:54.059Z,64.50
2022-09-03T15:01:39.451Z,63.70
2022-09-03T15:04:50.259Z,64.70
2022-09-03T15:07:59.113Z,65.20
2022-09-03T15:10:56.397Z,64.80
2022-09-03T15:14:18.679Z,65.80
2022-09-03T15:17:24.664Z,68.00
2022-09-03T15:20:53.359Z,69.50
2022-09-03T15:23:59.916Z,67.70
2022-09-03T15:27:19.298Z,69.20
2022-09-03T15:30:13.191Z,71.10
2022-09-03T15:33:06.855Z,71.30
2022-09-03T15:36:14.996Z,73.30
2022-09-03T15:39:09.322Z,74.50
2022-09-03T15:42:10.347Z,73.40
2022-09-03T15:44:57.086Z,76.10
2022-09-03T15:47:50.719Z,74.70
2022-09-03T15:50:58.942Z,74.10
2022-09-03T15:54:16.386Z,72.60
2022-09-03T15:57:15.591Z,72.90
2022-09-03T16:00:13.245Z,74.60
2022-09-03T16:03:20.388Z,74.10
2022-09-03T16:06:17.237Z,73.20
2022-09-03T16:09:03.223Z,75.10
2022-09-03T16:12:07.424Z,74.30
2022-09-03T16:15:00.864Z,72.80
2022-09-03T16:18:37.376Z,73.80
2022-09-03T16:21:43.505Z,72.90
2022-09-03T16:25:07.408Z,74.60
2022-09-03T16:28:19.743Z,73.90
2022-09-03T16:31:57.273Z,74.40
2022-09-03T16:35:44.020Z,72.70
2022-09-03T16:38:46.697Z,72.90
2022-09-03T16:41:58.316Z,74.70
2022-09-03T16:45:20.301Z,74.00
2022-09-03T16:48:50.813Z,75.60
2022-09-03T16:51:55.349Z,75.90
2022-09-03T16:55:14.737Z,76.70
2022-09-03T16:58:26.961Z,75.60
2022-09-03T17:02:23.687Z,76.00
2022-09-03T17:05:12.501Z,73.40
2022-09-03T17:08:42.561Z,73.60
2022-09-03T17:12:04.833Z,73.30
2022-09-03T17:15:16.843Z,73.20
2022-09-03T17:18:49.889Z,72.80
2022-09-03T17:22:20.675Z,72.40
2022-09-03T17:25:05.789Z,71.70
2022-09-03T17:28:22.691Z,71.90
2022-09-03T17:31:37.386Z,72.30
2022-09-03T17:35:00.881Z,72.30
2022-09-03T17:38:50.821Z,72.10
2022-09-03T17:42:12.558Z,72.60
2022-09-03T17:45:35.214Z,72.80
2022-09-03T17:48:42.186Z,72.50
2022-09-03T17:51:50.442Z,73.20
2022-09-03T17:54:37.184Z,73.30
2022-09-03T17:57:38.240Z,73.50
2022-09-03T18:00:21.992Z,73.90
2022-09-03T18:03:49.688Z,73.90
2022-09-03T18:06:41.802Z,74.20
2022-09-03T18:09:57.412Z,75.20
2022-09-03T18:13:55.524Z,75.50
2022-09-03T18:16:39.624Z,76.20
2022-09-03T18:19:58.543Z,76.90
2022-09-03T18:23:03.070Z,77.20
2022-09-03T18:25:52.270Z,76.90
2022-09-03T18:29:18.165Z,76.60
2022-09-03T18:32:04.173Z,76.80
2022-09-03T18:34:54.992Z,76.90
2022-09-03T18:37:46.468Z,76.50
2022-09-03T18:40:53.840Z,76.50
2022-09-03T18:44:22.158Z,75.80
2022-09-03T18:48:27.067Z,75.00
2022-09-03T18:51:52.451Z,75.00
2022-09-03T18:55:18.303Z,75.10
2022-09-03T18:59:01.117Z,74.90
2022-09-03T19:01:59.805Z,74.90
2022-09-03T19:05:25.628Z,75.30
2022-09-03T19:08:38.853Z,75.00
2022-09-03T19:12:27.716Z,75.10
2022-09-03T19:15:38.982Z,75.10
2022-09-03T19:19:42.196Z,75.90
2022-09-03T19:22:33.067Z,75.90
2022-09-03T19:25:33.940Z,76.90
2022-09-03T19:28:42.656Z,76.60
2022-09-03T19:32:06.436Z,77.90
2022-09-03T19:35:23.557Z,77.50
2022-09-03T19:39:24.351Z,77.10
2022-09-03T19:42:41.928Z,76.90
2022-09-03T19:46:10.440Z,77.30
2022-09-03T19:49:43.869Z,77.70
2022-09-03T19:53:23.371Z,77.60
2022-09-03T19:56:18.360Z,77.70
2022-09-03T19:59:43.376Z,77.60
2022-09-03T20:02:29.810Z,78.20
2022-09-03T20:05:24.992Z,78.30
2022-09-03T20:08:14.717Z,78.20
2022-09-03T20:10:48.893Z,78.60
2022-09-03T20:13:20.687Z,78.30
2022-09-03T20:16:14.602Z,78.70
2022-09-03T20:19:45.636Z,78.40
2022-09-03T20:22:44.357Z,78.40
2022-09-03T20:26:11.416Z,78.80
2022-09-03T20:29:34.092Z,79.00
2022-09-03T20:32:41.715Z,78.90
2022-09-03T20:35:53.455Z,79.00
2022-09-03T20:39:03.835Z,79.10
2022-09-03T20:42:14.366Z,79.40
2022-09-03T20:45:32.683Z,79.60
2022-09-03T20:48:43.318Z,79.90
2022-09-03T20:51:46.087Z,79.90
2022-09-03T20:54:42.578Z,80.00
2022-09-03T20:58:11.393Z,80.00
2022-09-03T21:01:16.544Z,79.80
2022-09-03T21:04:32.417Z,79.70
2022-09-03T21:07:43.167Z,79.80
2022-09-03T21:10:48.013Z,80.20
2022-09-03T21:13:52.728Z,80.20
2022-09-03T21:17:00.179Z,80.40
2022-09-03T21:20:28.604Z,80.40
2022-09-03T21:23:38.276Z,80.40
2022-09-03T21:26:33.924Z,80.60
2022-09-03T21:29:30.877Z,80.60
2022-09-03T21:32:29.699Z,81.00
2022-09-03T21:35:42.832Z,81.00
2022-09-03T21:38:31.388Z,80.70
2022-09-03T21:41:34.724Z,81.00
2022-09-03T21:44:32.918Z,80.90
2022-09-03T21:47:10.545Z,81.10
2022-09-03T21:49:57.447Z,81.10
2022-09-03T21:53:02.909Z,81.40
2022-09-03T21:56:07.865Z,81.10
2022-09-03T21:59:22.469Z,81.20
2022-09-03T22:02:28.802Z,81.20
2022-09-03T22:04:58.665Z,81.00
2022-09-03T22:08:23.164Z,81.50
2022-09-03T22:12:03.701Z,81.30
2022-09-03T22:14:47.935Z,81.30
2022-09-03T22:17:56.923Z,81.20
2022-09-03T22:20:28.629Z,81.20
2022-09-03T22:23:24.804Z,81.30
2022-09-03T22:26:14.511Z,81.30
2022-09-03T22:29:24.504Z,81.70
2022-09-03T22:32:25.363Z,81.20
2022-09-03T22:35:33.811Z,81.30
2022-09-03T22:38:33.074Z,81.20
2022-09-03T22:41:45.935Z,81.20
2022-09-03T22:44:50.961Z,81.20
2022-09-03T22:48:06.389Z,81.10
2022-09-03T22:50:59.288Z,81.30
2022-09-03T22:54:31.968Z,81.60
2022-09-03T22:57:01.347Z,81.50
2022-09-03T22:59:41.512Z,81.80
2022-09-03T23:02:26.420Z,81.90
2022-09-03T23:05:28.083Z,82.20
2022-09-03T23:08:33.732Z,81.80
2022-09-03T23:11:29.971Z,82.00
2022-09-03T23:14:12.389Z,81.70
2022-09-03T23:16:54.354Z,82.80
2022-09-03T23:19:40.878Z,82.00
2022-09-03T23:22:41.713Z,81.90
2022-09-03T23:25:25.643Z,81.90
2022-09-03T23:28:22.061Z,81.90
2022-09-03T23:30:49.756Z,82.10
2022-09-03T23:33:17.166Z,82.30
2022-09-03T23:37:32.415Z,81.90
2022-09-03T23:40:15.284Z,82.50
2022-09-03T23:43:48.205Z,82.40
2022-09-03T23:47:03.649Z,82.50
2022-09-03T23:50:11.968Z,82.90
2022-09-03T23:53:53.619Z,82.80
2022-09-03T23:57:13.032Z,82.70
